Clipper Titan — C6V2055 — position and weather

sailwx.info

Track history (hours):
 
Tides and Currents Weather Stations Pressure Air Temp Water Temp Dewpoint Dewpoint Depression Visibility Wind Speed Wind Dir Waves Ship Positions

Clipper Titan

Last reported at 2016-Apr-24 13:23 UTC. Time now 2016-May-01 17:29 UTC.
Position N 35°38' W 028°10'.

Length 179 m; draft 10 m.

Type: Cargo ship. MMSI: 311008200.

Date/timePositionNaut miles runAvg speedWind from/ knotsBaromVisibWave heightAir tempDewpointWater temp
2016-Apr-24 13:23N 35°38' W 028°10'911.0
2016-Apr-24 12:33N 35°39' W 027°59'9411.4
2016-Apr-24 04:20N 35°42' W 026°04'911.9
2016-Apr-24 03:34N 35°42' W 025°52'1212.0
2016-Apr-24 02:33N 35°43' W 025°37'1212.4
2016-Apr-24 01:33N 35°43' W 025°22'1212.2
2016-Apr-24 00:33N 35°43' W 025°07'1211.9
2016-Apr-23 23:33N 35°44' W 024°52'1211.6
2016-Apr-23 22:33N 35°44' W 024°38'1211.8
2016-Apr-23 21:33N 35°45' W 024°24'1211.7
2016-Apr-23 20:33N 35°45' W 024°09'1211.7
2016-Apr-23 19:33N 35°46' W 023°55'  
2016-Apr-20 13:19N 35°59' W 005°31'7 8.9
2016-Apr-20 12:33N 36°01' W 005°23'8 8.5
2016-Apr-20 11:33N 36°03' W 005°13'  
2016-Apr-17 15:29N 37°23' E 011°21'3612.1
2016-Apr-17 12:28N 37°07' E 012°02'1512.3
2016-Apr-17 11:13N 37°00' E 012°20'812.3
2016-Apr-17 10:33N 36°57' E 012°29'1312.2
2016-Apr-17 09:29N 36°52' E 012°44'1112.0
2016-Apr-17 08:33N 36°46' E 012°56'1211.7
2016-Apr-17 07:34N 36°40' E 013°08'1211.7
2016-Apr-17 06:33N 36°34' E 013°21'1212.1
2016-Apr-17 05:33N 36°29' E 013°34'1212.4
2016-Apr-17 04:33N 36°24' E 013°48'1212.3
2016-Apr-17 03:33N 36°18' E 014°02'1212.3
2016-Apr-17 02:33N 36°13' E 014°16'1212.5
2016-Apr-17 01:33N 36°06' E 014°28'1212.4
2016-Apr-17 00:33N 35°57' E 014°40'7 7.1
2016-Apr-16 23:32N 35°52' E 014°46'0 0.0
2016-Apr-16 22:29N 35°52' E 014°46'0 0.0
2016-Apr-16 21:32N 35°52' E 014°46'0 0.0
2016-Apr-16 20:32N 35°52' E 014°46'0 0.0
2016-Apr-16 19:29N 35°52' E 014°46'0 0.0
2016-Apr-16 18:32N 35°52' E 014°46'0 0.0
2016-Apr-16 17:32N 35°52' E 014°46'0 0.0
2016-Apr-16 16:32N 35°52' E 014°46'0 0.0
2016-Apr-16 15:32N 35°52' E 014°46'0 0.0
2016-Apr-16 14:32N 35°52' E 014°46'0 0.0
2016-Apr-16 13:32N 35°52' E 014°46'3 2.6
2016-Apr-16 12:33N 35°54' E 014°48'2 1.6
2016-Apr-16 11:31N 35°55' E 014°49'0 0.0
2016-Apr-16 10:31N 35°55' E 014°49'0 0.0
2016-Apr-16 09:31N 35°55' E 014°49'0 0.0
2016-Apr-16 08:28N 35°55' E 014°49'0 0.0
2016-Apr-16 07:31N 35°55' E 014°49'0 0.0
2016-Apr-16 06:31N 35°55' E 014°49'0 0.0
2016-Apr-16 05:28N 35°55' E 014°49'0 0.0
2016-Apr-16 04:31N 35°55' E 014°49'0 0.0
2016-Apr-16 03:31N 35°55' E 014°49'0 0.0
2016-Apr-16 02:31N 35°55' E 014°49'0 0.0
2016-Apr-16 01:31N 35°55' E 014°49'0 0.0
2016-Apr-16 00:31N 35°56' E 014°49'0 0.0
2016-Apr-15 23:31N 35°56' E 014°49'0 0.0
2016-Apr-15 22:31N 35°56' E 014°49'0 0.0
2016-Apr-15 21:25N 35°56' E 014°49'0 0.0
2016-Apr-15 20:28N 35°56' E 014°49'0 0.1
2016-Apr-15 19:28N 35°55' E 014°49'0 0.0
2016-Apr-15 18:33N 35°55' E 014°49'  
Track history (hours):
 
Tides and Currents Weather Stations Pressure Air Temp Water Temp Dewpoint Dewpoint Depression Visibility Wind Speed Wind Dir Waves Ship Positions

Clipper Titan

Last reported at 2016-Apr-24 13:23 UTC. Time now 2016-May-01 17:29 UTC.
Position N 35°38' W 028°10'.

Length 179 m; draft 10 m.

Type: Cargo ship. MMSI: 311008200.

Date/timePositionNaut miles runAvg speedWind from/ knotsBaromVisibWave heightAir tempDewpointWater temp
2016-Apr-24 13:23N 35°38' W 028°10'911.0
2016-Apr-24 12:33N 35°39' W 027°59'9411.4
2016-Apr-24 04:20N 35°42' W 026°04'911.9
2016-Apr-24 03:34N 35°42' W 025°52'1212.0
2016-Apr-24 02:33N 35°43' W 025°37'1212.4
2016-Apr-24 01:33N 35°43' W 025°22'1212.2
2016-Apr-24 00:33N 35°43' W 025°07'1211.9
2016-Apr-23 23:33N 35°44' W 024°52'1211.6
2016-Apr-23 22:33N 35°44' W 024°38'1211.8
2016-Apr-23 21:33N 35°45' W 024°24'1211.7
2016-Apr-23 20:33N 35°45' W 024°09'1211.7
2016-Apr-23 19:33N 35°46' W 023°55'  
2016-Apr-20 13:19N 35°59' W 005°31'7 8.9
2016-Apr-20 12:33N 36°01' W 005°23'8 8.5
2016-Apr-20 11:33N 36°03' W 005°13'  
2016-Apr-17 15:29N 37°23' E 011°21'3612.1
2016-Apr-17 12:28N 37°07' E 012°02'1512.3
2016-Apr-17 11:13N 37°00' E 012°20'812.3
2016-Apr-17 10:33N 36°57' E 012°29'1312.2
2016-Apr-17 09:29N 36°52' E 012°44'1112.0
2016-Apr-17 08:33N 36°46' E 012°56'1211.7
2016-Apr-17 07:34N 36°40' E 013°08'1211.7
2016-Apr-17 06:33N 36°34' E 013°21'1212.1
2016-Apr-17 05:33N 36°29' E 013°34'1212.4
2016-Apr-17 04:33N 36°24' E 013°48'1212.3
2016-Apr-17 03:33N 36°18' E 014°02'1212.3
2016-Apr-17 02:33N 36°13' E 014°16'1212.5
2016-Apr-17 01:33N 36°06' E 014°28'1212.4
2016-Apr-17 00:33N 35°57' E 014°40'7 7.1
2016-Apr-16 23:32N 35°52' E 014°46'0 0.0
2016-Apr-16 22:29N 35°52' E 014°46'0 0.0
2016-Apr-16 21:32N 35°52' E 014°46'0 0.0
2016-Apr-16 20:32N 35°52' E 014°46'0 0.0
2016-Apr-16 19:29N 35°52' E 014°46'0 0.0
2016-Apr-16 18:32N 35°52' E 014°46'0 0.0
2016-Apr-16 17:32N 35°52' E 014°46'0 0.0
2016-Apr-16 16:32N 35°52' E 014°46'0 0.0
2016-Apr-16 15:32N 35°52' E 014°46'0 0.0
2016-Apr-16 14:32N 35°52' E 014°46'0 0.0
2016-Apr-16 13:32N 35°52' E 014°46'3 2.6
2016-Apr-16 12:33N 35°54' E 014°48'2 1.6
2016-Apr-16 11:31N 35°55' E 014°49'0 0.0
2016-Apr-16 10:31N 35°55' E 014°49'0 0.0
2016-Apr-16 09:31N 35°55' E 014°49'0 0.0
2016-Apr-16 08:28N 35°55' E 014°49'0 0.0
2016-Apr-16 07:31N 35°55' E 014°49'0 0.0
2016-Apr-16 06:31N 35°55' E 014°49'0 0.0
2016-Apr-16 05:28N 35°55' E 014°49'0 0.0
2016-Apr-16 04:31N 35°55' E 014°49'0 0.0
2016-Apr-16 03:31N 35°55' E 014°49'0 0.0
2016-Apr-16 02:31N 35°55' E 014°49'0 0.0
2016-Apr-16 01:31N 35°55' E 014°49'0 0.0
2016-Apr-16 00:31N 35°56' E 014°49'0 0.0
2016-Apr-15 23:31N 35°56' E 014°49'0 0.0
2016-Apr-15 22:31N 35°56' E 014°49'0 0.0
2016-Apr-15 21:25N 35°56' E 014°49'0 0.0
2016-Apr-15 20:28N 35°56' E 014°49'0 0.1
2016-Apr-15 19:28N 35°55' E 014°49'0 0.0
2016-Apr-15 18:33N 35°55' E 014°49'  

Dump ship's entire track history